createdAt,value
2023-03-29T00:02:01.355Z,62.63
2023-03-29T00:04:30.881Z,62.98
2023-03-29T00:07:04.857Z,62.65
2023-03-29T00:09:36.375Z,62.39
2023-03-29T00:12:05.891Z,62.45
2023-03-29T00:14:35.174Z,61.83
2023-03-29T00:17:04.656Z,61.84
2023-03-29T00:19:36.767Z,61.04
2023-03-29T00:22:07.286Z,61.07
2023-03-29T00:24:38.207Z,61.33
2023-03-29T00:27:07.726Z,61.52
2023-03-29T00:29:37.185Z,60.96
2023-03-29T00:32:07.557Z,61.45
2023-03-29T00:34:37.246Z,61.39
2023-03-29T00:37:08.997Z,61.22
2023-03-29T00:39:42.295Z,60.97
2023-03-29T00:42:15.632Z,60.90
2023-03-29T00:45:20.626Z,60.77
2023-03-29T00:50:22.481Z,60.76
2023-03-29T00:52:58.714Z,61.61
2023-03-29T00:55:32.648Z,61.39
2023-03-29T00:58:04.794Z,61.22
2023-03-29T01:00:39.880Z,61.30
2023-03-29T01:03:13.941Z,61.23
2023-03-29T01:05:50.275Z,61.17
2023-03-29T01:08:25.906Z,61.21
2023-03-29T01:11:02.140Z,61.08
2023-03-29T01:13:40.937Z,61.16
2023-03-29T01:16:13.981Z,61.58
2023-03-29T01:18:43.986Z,61.27
2023-03-29T01:21:24.858Z,61.58
2023-03-29T01:24:25.102Z,60.83
2023-03-29T01:27:02.814Z,60.82
2023-03-29T01:29:38.852Z,60.42
2023-03-29T01:32:13.543Z,60.82
2023-03-29T01:34:48.598Z,60.81
2023-03-29T01:37:25.067Z,60.70
2023-03-29T01:39:55.257Z,60.43
2023-03-29T01:42:39.810Z,60.39
2023-03-29T01:45:24.528Z,60.33
2023-03-29T01:48:01.475Z,60.52
2023-03-29T01:50:41.357Z,60.10
2023-03-29T01:53:18.280Z,60.48
2023-03-29T01:55:54.407Z,60.39
2023-03-29T01:58:27.105Z,60.41
2023-03-29T02:00:58.183Z,60.29
2023-03-29T02:03:31.058Z,59.62
2023-03-29T02:06:02.615Z,58.90
2023-03-29T02:08:32.850Z,58.20
2023-03-29T02:11:02.303Z,58.21
2023-03-29T02:13:31.881Z,57.97
2023-03-29T02:16:03.406Z,58.49
2023-03-29T02:18:33.408Z,58.35
2023-03-29T02:21:03.597Z,57.86
2023-03-29T02:23:39.094Z,58.22
2023-03-29T02:26:10.001Z,58.30
2023-03-29T02:28:39.684Z,58.08
2023-03-29T02:31:19.162Z,58.44
2023-03-29T02:33:53.669Z,57.77
2023-03-29T02:36:28.929Z,57.66
2023-03-29T02:39:02.212Z,58.10
2023-03-29T02:41:31.908Z,57.79
2023-03-29T02:44:04.328Z,57.59
2023-03-29T02:46:35.265Z,56.66
2023-03-29T02:49:05.429Z,57.08
2023-03-29T02:51:36.590Z,56.76
2023-03-29T02:54:11.293Z,57.03
2023-03-29T02:56:45.073Z,55.84
2023-03-29T02:59:15.080Z,56.40
2023-03-29T03:01:45.830Z,56.30
2023-03-29T03:04:15.400Z,56.46
2023-03-29T03:06:44.719Z,56.50
2023-03-29T03:09:14.789Z,57.15
2023-03-29T03:11:44.245Z,57.02
2023-03-29T03:14:13.619Z,56.52
2023-03-29T03:16:44.435Z,56.22
2023-03-29T03:22:01.060Z,56.33
2023-03-29T03:24:30.573Z,56.96
2023-03-29T03:26:59.982Z,56.53
2023-03-29T03:29:30.054Z,56.83
2023-03-29T03:32:01.086Z,57.31
2023-03-29T03:34:30.510Z,56.85
2023-03-29T03:37:01.970Z,57.00
2023-03-29T03:39:31.955Z,57.76
2023-03-29T03:42:01.334Z,57.19
2023-03-29T03:44:30.741Z,56.79
2023-03-29T03:47:01.694Z,56.99
2023-03-29T03:51:14.354Z,56.90
2023-03-29T03:53:43.890Z,57.08
2023-03-29T03:56:14.209Z,56.18
2023-03-29T03:58:43.634Z,55.91
2023-03-29T04:01:13.024Z,56.15
2023-03-29T04:03:42.405Z,56.43
2023-03-29T04:06:13.314Z,56.73
2023-03-29T04:08:43.004Z,56.70
2023-03-29T04:11:12.410Z,55.30
2023-03-29T04:13:41.832Z,55.83
2023-03-29T04:16:11.561Z,54.95
2023-03-29T04:18:40.976Z,54.77
2023-03-29T04:21:14.829Z,55.18
2023-03-29T04:23:46.632Z,55.42
2023-03-29T04:26:18.044Z,56.29
2023-03-29T04:28:47.417Z,56.30
2023-03-29T04:31:17.703Z,56.62
2023-03-29T04:33:47.883Z,55.60
2023-03-29T04:36:18.765Z,55.14
2023-03-29T04:38:49.100Z,55.47
2023-03-29T04:41:18.436Z,55.67
2023-03-29T04:43:47.890Z,55.97
2023-03-29T04:46:17.856Z,55.24
2023-03-29T04:48:47.295Z,54.88
2023-03-29T04:51:17.982Z,55.52
2023-03-29T04:53:47.364Z,54.26
2023-03-29T04:56:18.377Z,54.88
2023-03-29T04:58:47.790Z,55.02
2023-03-29T05:01:17.630Z,55.47
2023-03-29T05:03:46.963Z,55.13
2023-03-29T05:06:18.117Z,55.44
2023-03-29T05:08:47.426Z,55.56
2023-03-29T05:11:16.820Z,56.12
2023-03-29T05:13:47.392Z,55.78
2023-03-29T05:16:17.047Z,55.07
2023-03-29T05:18:46.477Z,55.55
2023-03-29T05:21:15.813Z,54.54
2023-03-29T05:23:46.559Z,54.82
2023-03-29T05:26:15.808Z,55.04
2023-03-29T05:28:45.233Z,54.92
2023-03-29T05:31:16.933Z,54.34
2023-03-29T05:33:47.010Z,54.92
2023-03-29T05:36:19.181Z,54.77
2023-03-29T05:38:50.088Z,54.92
2023-03-29T05:41:19.837Z,55.19
2023-03-29T05:43:49.197Z,54.89
2023-03-29T05:46:18.774Z,54.55
2023-03-29T05:48:48.089Z,54.59
2023-03-29T05:51:19.041Z,54.28
2023-03-29T05:53:49.837Z,53.89
2023-03-29T05:56:19.275Z,53.71
2023-03-29T05:58:49.585Z,54.17
2023-03-29T06:01:19.244Z,52.52
2023-03-29T06:03:49.370Z,51.28
2023-03-29T06:06:19.151Z,50.01
2023-03-29T06:08:50.807Z,50.30
2023-03-29T06:11:20.149Z,51.02
2023-03-29T06:13:49.498Z,50.06
2023-03-29T06:16:18.894Z,48.85
2023-03-29T06:18:48.209Z,49.39
2023-03-29T06:24:06.954Z,49.11
2023-03-29T06:26:36.637Z,47.50
2023-03-29T06:29:05.980Z,43.95
2023-03-29T06:31:36.349Z,44.43
2023-03-29T06:34:06.162Z,45.45
2023-03-29T06:36:35.517Z,44.39
2023-03-29T06:41:55.733Z,43.83
2023-03-29T06:44:25.796Z,41.84
2023-03-29T06:46:55.097Z,43.85
2023-03-29T06:51:13.669Z,43.21
2023-03-29T06:53:42.977Z,42.44
2023-03-29T06:56:12.576Z,42.83
2023-03-29T06:58:42.252Z,41.95
2023-03-29T07:01:11.760Z,42.23
2023-03-29T07:03:41.679Z,44.14
2023-03-29T07:06:12.885Z,43.97
2023-03-29T07:08:45.289Z,42.84
2023-03-29T07:11:16.485Z,40.53
2023-03-29T07:13:49.275Z,40.90
2023-03-29T07:16:19.532Z,39.40
2023-03-29T07:18:52.015Z,40.66
2023-03-29T07:21:23.129Z,41.03
2023-03-29T07:23:53.354Z,41.37
2023-03-29T07:26:28.828Z,40.20
2023-03-29T07:29:01.238Z,40.51
2023-03-29T07:31:33.112Z,39.96
2023-03-29T07:34:03.712Z,41.22
2023-03-29T07:36:35.109Z,39.76
2023-03-29T07:39:04.487Z,40.68
2023-03-29T07:41:33.813Z,40.06
2023-03-29T07:44:09.235Z,40.09
2023-03-29T07:46:38.612Z,39.61
2023-03-29T07:49:08.901Z,40.23
2023-03-29T07:51:39.794Z,39.39
2023-03-29T07:54:09.216Z,40.01
2023-03-29T07:56:38.577Z,40.10
2023-03-29T07:59:07.895Z,39.06
2023-03-29T08:01:37.147Z,37.45
2023-03-29T08:04:06.720Z,37.94
2023-03-29T08:06:36.190Z,40.01
2023-03-29T08:09:07.113Z,38.39
2023-03-29T08:11:38.779Z,38.41
2023-03-29T08:14:09.274Z,38.66
2023-03-29T08:16:38.760Z,40.28
2023-03-29T08:19:08.532Z,39.15
2023-03-29T08:21:37.911Z,39.14
2023-03-29T08:24:09.524Z,38.52
2023-03-29T08:26:38.703Z,37.32
2023-03-29T08:29:08.558Z,38.21
2023-03-29T08:31:38.259Z,38.22
2023-03-29T08:34:07.758Z,38.77
2023-03-29T08:36:37.222Z,37.78
2023-03-29T08:39:08.043Z,37.60
2023-03-29T08:41:53.811Z,38.13
2023-03-29T08:44:43.461Z,37.00
2023-03-29T08:47:21.692Z,38.45
2023-03-29T08:49:57.760Z,37.94
2023-03-29T08:52:36.511Z,37.43
2023-03-29T08:55:17.035Z,38.66
2023-03-29T08:57:49.371Z,37.12
2023-03-29T09:00:26.070Z,36.62
2023-03-29T09:02:57.668Z,37.21
2023-03-29T09:05:32.633Z,36.19
2023-03-29T09:08:02.492Z,36.93
2023-03-29T09:10:44.262Z,37.81
2023-03-29T09:13:30.555Z,34.87
2023-03-29T09:16:12.606Z,35.74
2023-03-29T09:18:58.078Z,36.21
2023-03-29T09:21:37.984Z,36.97
2023-03-29T09:24:34.929Z,37.54
2023-03-29T09:27:14.693Z,36.61
2023-03-29T09:29:58.455Z,36.22
2023-03-29T09:32:33.740Z,36.67
2023-03-29T09:35:18.731Z,36.33
2023-03-29T09:37:52.065Z,35.45
2023-03-29T09:40:28.125Z,35.59
2023-03-29T09:43:01.199Z,36.70
2023-03-29T09:45:30.557Z,36.29
2023-03-29T09:51:16.734Z,35.83
2023-03-29T09:53:47.226Z,36.13
2023-03-29T09:56:19.235Z,34.35
2023-03-29T09:58:49.038Z,35.82
2023-03-29T10:01:19.617Z,34.97
2023-03-29T10:03:54.363Z,35.55
2023-03-29T10:06:27.052Z,35.43
2023-03-29T10:08:59.182Z,35.39
2023-03-29T10:11:34.231Z,36.33
2023-03-29T10:14:06.766Z,35.09
2023-03-29T10:16:41.545Z,35.09
2023-03-29T10:19:29.187Z,36.29
2023-03-29T10:22:04.700Z,33.97
2023-03-29T10:24:34.675Z,34.97
2023-03-29T10:27:08.656Z,36.46
2023-03-29T10:29:41.476Z,34.79
2023-03-29T10:32:18.762Z,35.27
2023-03-29T10:34:49.663Z,35.13
2023-03-29T10:37:24.133Z,35.32
2023-03-29T10:39:53.948Z,34.41
2023-03-29T10:42:26.931Z,33.51
2023-03-29T10:44:59.042Z,34.11
2023-03-29T10:47:35.245Z,33.76
2023-03-29T10:50:10.238Z,34.72
2023-03-29T10:52:42.858Z,32.87
2023-03-29T10:55:16.131Z,33.64
2023-03-29T10:57:58.356Z,33.00
2023-03-29T11:00:36.290Z,32.19
2023-03-29T11:03:50.940Z,33.44
2023-03-29T11:10:44.700Z,31.55
2023-03-29T11:13:33.256Z,32.10
2023-03-29T11:16:22.922Z,33.27
2023-03-29T11:19:44.489Z,32.36
2023-03-29T11:22:30.601Z,31.58
2023-03-29T11:25:34.150Z,32.47
2023-03-29T11:28:14.932Z,32.45
2023-03-29T11:31:03.514Z,31.47
2023-03-29T11:33:53.663Z,30.25
2023-03-29T11:36:39.434Z,30.79
2023-03-29T11:39:19.817Z,30.32
2023-03-29T11:41:57.804Z,30.82
2023-03-29T11:44:34.528Z,31.85
2023-03-29T11:47:14.806Z,30.73
2023-03-29T11:49:52.186Z,31.12
2023-03-29T11:52:30.713Z,30.01
2023-03-29T11:55:13.938Z,30.85
2023-03-29T11:57:54.540Z,29.60
2023-03-29T12:00:33.249Z,28.83
2023-03-29T12:03:19.458Z,30.68
2023-03-29T12:05:55.992Z,30.03
2023-03-29T12:08:35.089Z,28.14
2023-03-29T12:11:20.655Z,29.24
2023-03-29T12:14:00.662Z,29.77
2023-03-29T12:16:42.042Z,28.30
2023-03-29T12:19:22.128Z,28.51
2023-03-29T12:21:56.472Z,28.52
2023-03-29T12:24:34.442Z,29.50
2023-03-29T12:27:27.388Z,28.86
2023-03-29T12:30:54.278Z,29.56
2023-03-29T12:34:27.136Z,29.28
2023-03-29T12:37:32.340Z,29.05
2023-03-29T12:40:18.410Z,29.09
2023-03-29T12:42:58.035Z,28.93
2023-03-29T12:45:50.086Z,27.77
2023-03-29T12:51:20.381Z,28.12
2023-03-29T12:53:55.944Z,28.95
2023-03-29T12:56:58.620Z,28.06
2023-03-29T12:59:43.256Z,28.08
2023-03-29T13:02:40.603Z,29.44
2023-03-29T13:05:33.050Z,29.66
2023-03-29T13:08:25.118Z,29.71
2023-03-29T13:10:58.632Z,29.61
2023-03-29T13:13:35.347Z,29.54
2023-03-29T13:16:19.932Z,29.82
2023-03-29T13:19:07.584Z,29.89
2023-03-29T13:21:56.965Z,29.74
2023-03-29T13:25:13.348Z,30.07
2023-03-29T13:27:55.477Z,30.27
2023-03-29T13:30:54.465Z,29.59
2023-03-29T13:33:53.621Z,29.66
2023-03-29T13:36:47.479Z,29.26
2023-03-29T13:39:26.552Z,28.73
2023-03-29T13:42:21.917Z,29.16
2023-03-29T13:44:54.304Z,28.93
2023-03-29T13:48:04.324Z,29.22
2023-03-29T13:50:54.830Z,28.58
2023-03-29T13:53:41.242Z,30.27
2023-03-29T13:56:22.051Z,30.86
2023-03-29T13:58:58.534Z,30.36
2023-03-29T14:01:41.107Z,31.08
2023-03-29T14:04:26.392Z,30.78
2023-03-29T14:07:04.885Z,30.98
2023-03-29T14:09:45.401Z,29.17
2023-03-29T14:12:22.869Z,30.00
2023-03-29T14:15:07.123Z,30.18
2023-03-29T14:17:39.653Z,28.46
2023-03-29T14:20:21.367Z,29.70
2023-03-29T14:22:54.576Z,30.53
2023-03-29T14:25:27.584Z,31.46
2023-03-29T14:27:59.127Z,30.85
2023-03-29T14:30:32.721Z,31.72
2023-03-29T14:33:06.677Z,32.63
2023-03-29T14:35:40.608Z,32.75
2023-03-29T14:38:15.201Z,31.96
2023-03-29T14:40:47.836Z,32.14
2023-03-29T14:43:24.335Z,32.23
2023-03-29T14:45:57.499Z,32.65
2023-03-29T14:48:29.818Z,32.53
2023-03-29T14:51:01.972Z,31.47
2023-03-29T14:53:34.845Z,30.68
2023-03-29T14:56:07.122Z,31.84
2023-03-29T14:58:40.257Z,32.26
2023-03-29T15:01:21.769Z,33.01
2023-03-29T15:03:56.860Z,32.35
2023-03-29T15:06:30.339Z,32.08
2023-03-29T15:09:06.830Z,31.52
2023-03-29T15:11:40.113Z,32.15
2023-03-29T15:14:19.470Z,32.82
2023-03-29T15:16:54.422Z,31.73
2023-03-29T15:19:30.346Z,31.89
2023-03-29T15:22:12.719Z,31.99
2023-03-29T15:24:51.333Z,32.60
2023-03-29T15:27:23.130Z,32.10
2023-03-29T15:30:36.705Z,33.03
2023-03-29T15:33:26.573Z,33.57
2023-03-29T15:36:05.335Z,33.68
2023-03-29T15:38:44.148Z,33.34
2023-03-29T15:41:18.731Z,33.10
2023-03-29T15:43:54.460Z,32.69
2023-03-29T15:46:33.126Z,33.27
2023-03-29T15:51:15.994Z,34.34
2023-03-29T15:53:47.829Z,33.78
2023-03-29T15:56:23.241Z,33.10
2023-03-29T15:58:55.138Z,32.70
2023-03-29T16:01:36.843Z,33.01
2023-03-29T16:04:15.602Z,33.27
2023-03-29T16:06:51.167Z,33.55
2023-03-29T16:09:23.739Z,33.09
2023-03-29T16:11:55.948Z,34.45
2023-03-29T16:14:31.790Z,33.90
2023-03-29T16:17:03.352Z,33.78
2023-03-29T16:19:36.041Z,34.53
2023-03-29T16:22:09.282Z,34.99
2023-03-29T16:24:41.522Z,34.12
2023-03-29T16:27:13.562Z,33.36
2023-03-29T16:29:45.571Z,33.42
2023-03-29T16:32:17.416Z,33.14
2023-03-29T16:34:49.799Z,32.85
2023-03-29T16:37:22.502Z,33.65
2023-03-29T16:39:54.064Z,34.98
2023-03-29T16:42:25.840Z,33.25
2023-03-29T16:44:58.426Z,33.53
2023-03-29T16:47:30.922Z,33.65
2023-03-29T16:50:02.833Z,34.96
2023-03-29T16:52:38.070Z,34.43
2023-03-29T16:55:13.266Z,34.07
2023-03-29T16:57:48.963Z,35.51
2023-03-29T17:00:22.161Z,34.72
2023-03-29T17:02:53.946Z,35.08
2023-03-29T17:05:26.801Z,33.69
2023-03-29T17:07:59.437Z,34.97
2023-03-29T17:10:32.036Z,34.73
2023-03-29T17:13:04.207Z,34.56
2023-03-29T17:15:38.138Z,36.07
2023-03-29T17:18:14.176Z,35.75
2023-03-29T17:20:46.064Z,37.01
2023-03-29T17:23:19.722Z,38.41
2023-03-29T17:25:51.136Z,38.06
2023-03-29T17:28:22.619Z,38.30
2023-03-29T17:30:54.429Z,38.15
2023-03-29T17:33:26.851Z,36.26
2023-03-29T17:35:58.895Z,36.92
2023-03-29T17:38:34.365Z,36.48
2023-03-29T17:41:07.276Z,37.99
2023-03-29T17:43:39.167Z,36.90
2023-03-29T17:46:11.425Z,35.88
2023-03-29T17:48:43.493Z,36.27
2023-03-29T17:51:15.162Z,36.23
2023-03-29T17:53:52.481Z,36.71
2023-03-29T17:56:24.227Z,37.36
2023-03-29T17:58:55.406Z,37.50
2023-03-29T18:01:27.592Z,38.06
2023-03-29T18:03:59.853Z,36.13
2023-03-29T18:06:32.713Z,37.29
2023-03-29T18:09:05.450Z,37.81
2023-03-29T18:11:37.417Z,37.68
2023-03-29T18:14:09.145Z,38.43
2023-03-29T18:16:41.689Z,39.16
2023-03-29T18:19:13.937Z,38.13
2023-03-29T18:21:46.081Z,38.56
2023-03-29T18:24:18.870Z,38.36
2023-03-29T18:26:50.027Z,39.18
2023-03-29T18:29:25.313Z,38.24
2023-03-29T18:31:56.981Z,38.66
2023-03-29T18:34:29.141Z,39.16
2023-03-29T18:37:04.351Z,39.65
2023-03-29T18:39:36.904Z,39.82
2023-03-29T18:42:10.907Z,40.05
2023-03-29T18:44:45.302Z,40.85
2023-03-29T18:47:18.449Z,40.57
2023-03-29T18:51:16.338Z,41.29
2023-03-29T18:53:47.887Z,40.70
2023-03-29T18:56:23.947Z,41.07
2023-03-29T18:58:56.442Z,41.62
2023-03-29T19:01:27.938Z,40.03
2023-03-29T19:03:59.450Z,41.27
2023-03-29T19:06:33.209Z,41.46
2023-03-29T19:09:05.634Z,42.19
2023-03-29T19:11:37.801Z,41.60
2023-03-29T19:14:11.299Z,41.50
2023-03-29T19:16:43.097Z,41.43
2023-03-29T19:19:15.204Z,40.88
2023-03-29T19:21:49.118Z,41.28
2023-03-29T19:24:21.316Z,42.66
2023-03-29T19:26:57.712Z,42.96
2023-03-29T19:29:29.256Z,42.21
2023-03-29T19:32:01.205Z,44.53
2023-03-29T19:34:33.115Z,42.77
2023-03-29T19:37:05.744Z,44.75
2023-03-29T19:39:37.645Z,45.22
2023-03-29T19:42:09.248Z,46.20
2023-03-29T19:44:40.545Z,46.69
2023-03-29T19:47:12.374Z,46.56
2023-03-29T19:49:46.402Z,47.69
2023-03-29T19:52:19.441Z,47.26
2023-03-29T19:54:50.453Z,46.69
2023-03-29T19:57:22.956Z,46.86
2023-03-29T19:59:55.572Z,47.74
2023-03-29T20:02:27.804Z,47.21
2023-03-29T20:04:59.764Z,47.40
2023-03-29T20:07:32.820Z,48.59
2023-03-29T20:10:03.966Z,47.37
2023-03-29T20:12:35.335Z,48.71
2023-03-29T20:15:07.670Z,48.80
2023-03-29T20:17:41.017Z,51.23
2023-03-29T20:20:14.393Z,50.17
2023-03-29T20:22:47.367Z,51.37
2023-03-29T20:25:19.965Z,51.68
2023-03-29T20:27:51.740Z,50.59
2023-03-29T20:30:23.972Z,50.28
2023-03-29T20:32:56.235Z,51.01
2023-03-29T20:35:28.261Z,51.44
2023-03-29T20:38:01.426Z,51.64
2023-03-29T20:40:33.173Z,51.39
2023-03-29T20:43:05.359Z,49.90
2023-03-29T20:45:50.105Z,52.42
2023-03-29T20:48:39.763Z,53.26
2023-03-29T20:51:11.582Z,53.12
2023-03-29T20:53:44.239Z,53.15
2023-03-29T20:56:15.488Z,53.71
2023-03-29T20:58:47.610Z,52.85
2023-03-29T21:01:22.109Z,53.12
2023-03-29T21:03:53.567Z,53.23
2023-03-29T21:06:25.904Z,54.12
2023-03-29T21:08:58.970Z,54.22
2023-03-29T21:11:30.462Z,53.94
2023-03-29T21:14:02.882Z,54.28
2023-03-29T21:16:34.255Z,54.58
2023-03-29T21:19:05.820Z,55.80
2023-03-29T21:21:37.398Z,56.03
2023-03-29T21:24:13.719Z,55.01
2023-03-29T21:26:45.477Z,54.37
2023-03-29T21:29:17.693Z,53.82
2023-03-29T21:31:49.622Z,53.69
2023-03-29T21:34:21.388Z,53.09
2023-03-29T21:36:53.022Z,52.23
2023-03-29T21:39:28.228Z,52.04
2023-03-29T21:42:00.107Z,52.11
2023-03-29T21:44:34.939Z,51.64
2023-03-29T21:47:06.013Z,51.07
2023-03-29T21:51:15.099Z,51.24
2023-03-29T21:53:47.440Z,51.63
2023-03-29T21:56:19.515Z,52.03
2023-03-29T21:58:51.324Z,50.97
2023-03-29T22:01:22.351Z,50.65
2023-03-29T22:03:53.409Z,50.56
2023-03-29T22:06:25.830Z,50.64
2023-03-29T22:08:57.462Z,50.56
2023-03-29T22:11:30.028Z,51.16
2023-03-29T22:14:01.947Z,50.91
2023-03-29T22:16:37.466Z,50.67
2023-03-29T22:19:09.790Z,50.85
2023-03-29T22:21:42.758Z,50.87
2023-03-29T22:24:14.504Z,50.71
2023-03-29T22:26:46.294Z,50.64
2023-03-29T22:29:17.653Z,51.08
2023-03-29T22:31:49.538Z,51.01
2023-03-29T22:34:20.977Z,50.98
2023-03-29T22:36:53.904Z,51.26
2023-03-29T22:39:24.891Z,51.96
2023-03-29T22:41:56.545Z,51.29
2023-03-29T22:44:27.866Z,51.61
2023-03-29T22:46:59.809Z,51.12
2023-03-29T22:49:32.018Z,50.98
2023-03-29T22:52:05.112Z,51.38
2023-03-29T22:54:41.483Z,51.24
2023-03-29T22:57:11.259Z,51.21
2023-03-29T22:59:43.546Z,51.31
2023-03-29T23:02:22.046Z,51.47
2023-03-29T23:04:53.108Z,51.46
2023-03-29T23:07:26.477Z,51.33
2023-03-29T23:09:58.999Z,51.52
2023-03-29T23:12:31.358Z,51.25
2023-03-29T23:15:03.654Z,51.49
2023-03-29T23:17:35.675Z,51.66
2023-03-29T23:20:08.639Z,51.55
2023-03-29T23:22:41.671Z,52.06
2023-03-29T23:25:13.563Z,51.99
2023-03-29T23:27:45.998Z,52.20
2023-03-29T23:30:18.700Z,52.08
2023-03-29T23:37:54.514Z,52.61
2023-03-29T23:40:28.168Z,52.36
2023-03-29T23:42:59.797Z,52.18
2023-03-29T23:45:29.588Z,52.21
2023-03-29T23:47:58.866Z,52.21
2023-03-29T23:50:29.251Z,52.33
2023-03-29T23:52:58.545Z,51.69
2023-03-29T23:55:29.258Z,52.19
2023-03-29T23:57:58.542Z,51.84
